sensor_id;sensor_type;location;lat;lon;timestamp;P1;durP1;ratioP1;P2;durP2;ratioP2
6207;SDS011;3137;51.550;7.060;2024-02-23T00:01:07;1.33;;;1.33;;
6207;SDS011;3137;51.550;7.060;2024-02-23T00:03:33;0.90;;;0.90;;
6207;SDS011;3137;51.550;7.060;2024-02-23T00:06:03;1.10;;;1.10;;
6207;SDS011;3137;51.550;7.060;2024-02-23T00:08:30;1.50;;;1.50;;
6207;SDS011;3137;51.550;7.060;2024-02-23T00:10:56;1.77;;;1.77;;
6207;SDS011;3137;51.550;7.060;2024-02-23T00:13:23;2.20;;;2.20;;
6207;SDS011;3137;51.550;7.060;2024-02-23T00:15:50;2.10;;;1.63;;
6207;SDS011;3137;51.550;7.060;2024-02-23T00:18:16;1.43;;;1.43;;
6207;SDS011;3137;51.550;7.060;2024-02-23T00:20:43;1.60;;;1.60;;
6207;SDS011;3137;51.550;7.060;2024-02-23T00:23:10;1.40;;;1.40;;
6207;SDS011;3137;51.550;7.060;2024-02-23T00:25:36;1.40;;;1.40;;
6207;SDS011;3137;51.550;7.060;2024-02-23T00:28:03;1.67;;;1.67;;
6207;SDS011;3137;51.550;7.060;2024-02-23T00:30:30;2.80;;;2.53;;
6207;SDS011;3137;51.550;7.060;2024-02-23T00:32:56;3.07;;;3.07;;
6207;SDS011;3137;51.550;7.060;2024-02-23T00:35:23;3.10;;;3.00;;
6207;SDS011;3137;51.550;7.060;2024-02-23T00:37:49;3.00;;;2.90;;
6207;SDS011;3137;51.550;7.060;2024-02-23T00:40:16;2.37;;;2.37;;
6207;SDS011;3137;51.550;7.060;2024-02-23T00:42:42;2.37;;;2.37;;
6207;SDS011;3137;51.550;7.060;2024-02-23T00:45:09;2.90;;;2.80;;
6207;SDS011;3137;51.550;7.060;2024-02-23T00:47:35;2.93;;;2.83;;
6207;SDS011;3137;51.550;7.060;2024-02-23T00:50:03;2.30;;;2.30;;
6207;SDS011;3137;51.550;7.060;2024-02-23T00:52:30;2.60;;;2.30;;
6207;SDS011;3137;51.550;7.060;2024-02-23T00:54:56;3.23;;;3.13;;
6207;SDS011;3137;51.550;7.060;2024-02-23T00:57:22;3.80;;;2.60;;
6207;SDS011;3137;51.550;7.060;2024-02-23T00:59:53;2.67;;;2.53;;
6207;SDS011;3137;51.550;7.060;2024-02-23T01:02:20;4.03;;;3.93;;
6207;SDS011;3137;51.550;7.060;2024-02-23T01:04:46;3.90;;;3.70;;
6207;SDS011;3137;51.550;7.060;2024-02-23T01:07:13;6.53;;;3.30;;
6207;SDS011;3137;51.550;7.060;2024-02-23T01:09:40;4.17;;;3.90;;
6207;SDS011;3137;51.550;7.060;2024-02-23T01:12:06;6.00;;;3.80;;
6207;SDS011;3137;51.550;7.060;2024-02-23T01:14:33;4.33;;;4.13;;
6207;SDS011;3137;51.550;7.060;2024-02-23T01:16:59;4.20;;;4.00;;
6207;SDS011;3137;51.550;7.060;2024-02-23T01:19:26;3.10;;;2.87;;
6207;SDS011;3137;51.550;7.060;2024-02-23T01:21:52;4.23;;;3.13;;
6207;SDS011;3137;51.550;7.060;2024-02-23T01:24:26;3.30;;;3.20;;
6207;SDS011;3137;51.550;7.060;2024-02-23T01:26:53;2.80;;;2.70;;
6207;SDS011;3137;51.550;7.060;2024-02-23T01:29:25;3.30;;;3.10;;
6207;SDS011;3137;51.550;7.060;2024-02-23T01:31:53;3.07;;;2.87;;
6207;SDS011;3137;51.550;7.060;2024-02-23T01:34:20;2.63;;;2.63;;
6207;SDS011;3137;51.550;7.060;2024-02-23T01:36:48;3.60;;;2.83;;
6207;SDS011;3137;51.550;7.060;2024-02-23T01:39:14;3.47;;;3.37;;
6207;SDS011;3137;51.550;7.060;2024-02-23T01:41:40;2.53;;;2.53;;
6207;SDS011;3137;51.550;7.060;2024-02-23T01:44:09;2.90;;;2.90;;
6207;SDS011;3137;51.550;7.060;2024-02-23T01:46:36;3.80;;;3.50;;
6207;SDS011;3137;51.550;7.060;2024-02-23T01:49:03;3.57;;;3.37;;
6207;SDS011;3137;51.550;7.060;2024-02-23T01:51:33;3.30;;;3.00;;
6207;SDS011;3137;51.550;7.060;2024-02-23T01:54:00;3.87;;;3.67;;
6207;SDS011;3137;51.550;7.060;2024-02-23T01:56:28;2.87;;;2.67;;
6207;SDS011;3137;51.550;7.060;2024-02-23T01:58:55;3.60;;;3.53;;
6207;SDS011;3137;51.550;7.060;2024-02-23T02:01:22;3.30;;;3.03;;
6207;SDS011;3137;51.550;7.060;2024-02-23T02:03:48;3.50;;;3.40;;
6207;SDS011;3137;51.550;7.060;2024-02-23T02:06:15;3.30;;;3.17;;
6207;SDS011;3137;51.550;7.060;2024-02-23T02:08:41;2.63;;;2.57;;
6207;SDS011;3137;51.550;7.060;2024-02-23T02:11:08;3.60;;;2.87;;
6207;SDS011;3137;51.550;7.060;2024-02-23T02:13:35;4.40;;;2.93;;
6207;SDS011;3137;51.550;7.060;2024-02-23T02:16:01;2.30;;;2.30;;
6207;SDS011;3137;51.550;7.060;2024-02-23T02:18:30;4.37;;;2.20;;
6207;SDS011;3137;51.550;7.060;2024-02-23T02:20:57;1.83;;;1.83;;
6207;SDS011;3137;51.550;7.060;2024-02-23T02:23:24;3.57;;;2.53;;
6207;SDS011;3137;51.550;7.060;2024-02-23T02:25:55;2.57;;;2.47;;
6207;SDS011;3137;51.550;7.060;2024-02-23T02:28:23;7.00;;;2.37;;
6207;SDS011;3137;51.550;7.060;2024-02-23T02:30:50;2.00;;;1.90;;
6207;SDS011;3137;51.550;7.060;2024-02-23T02:33:17;2.10;;;2.10;;
6207;SDS011;3137;51.550;7.060;2024-02-23T02:35:44;2.10;;;2.10;;
6207;SDS011;3137;51.550;7.060;2024-02-23T02:38:11;2.27;;;2.27;;
6207;SDS011;3137;51.550;7.060;2024-02-23T02:40:37;2.30;;;2.20;;
6207;SDS011;3137;51.550;7.060;2024-02-23T02:43:04;4.13;;;2.70;;
6207;SDS011;3137;51.550;7.060;2024-02-23T02:45:31;8.13;;;2.40;;
6207;SDS011;3137;51.550;7.060;2024-02-23T02:47:59;2.27;;;2.07;;
6207;SDS011;3137;51.550;7.060;2024-02-23T02:50:26;1.67;;;1.67;;
6207;SDS011;3137;51.550;7.060;2024-02-23T02:52:53;1.57;;;1.57;;
6207;SDS011;3137;51.550;7.060;2024-02-23T02:55:19;2.40;;;2.23;;
6207;SDS011;3137;51.550;7.060;2024-02-23T02:57:46;2.60;;;2.40;;
6207;SDS011;3137;51.550;7.060;2024-02-23T03:00:12;2.00;;;1.80;;
6207;SDS011;3137;51.550;7.060;2024-02-23T03:02:39;3.40;;;2.07;;
6207;SDS011;3137;51.550;7.060;2024-02-23T03:05:05;4.77;;;2.20;;
6207;SDS011;3137;51.550;7.060;2024-02-23T03:07:32;1.90;;;1.90;;
6207;SDS011;3137;51.550;7.060;2024-02-23T03:09:58;4.10;;;2.43;;
6207;SDS011;3137;51.550;7.060;2024-02-23T03:12:25;1.90;;;1.80;;
6207;SDS011;3137;51.550;7.060;2024-02-23T03:14:51;4.07;;;2.03;;
6207;SDS011;3137;51.550;7.060;2024-02-23T03:17:18;1.60;;;1.60;;
6207;SDS011;3137;51.550;7.060;2024-02-23T03:19:44;2.10;;;1.57;;
6207;SDS011;3137;51.550;7.060;2024-02-23T03:22:11;1.93;;;1.87;;
6207;SDS011;3137;51.550;7.060;2024-02-23T03:24:37;2.83;;;1.53;;
6207;SDS011;3137;51.550;7.060;2024-02-23T03:27:04;4.33;;;1.80;;
6207;SDS011;3137;51.550;7.060;2024-02-23T03:29:31;2.10;;;1.50;;
6207;SDS011;3137;51.550;7.060;2024-02-23T03:31:58;3.97;;;1.70;;
6207;SDS011;3137;51.550;7.060;2024-02-23T03:34:25;1.37;;;1.37;;
6207;SDS011;3137;51.550;7.060;2024-02-23T03:36:51;1.43;;;1.30;;
6207;SDS011;3137;51.550;7.060;2024-02-23T03:39:18;1.60;;;1.40;;
6207;SDS011;3137;51.550;7.060;2024-02-23T03:41:44;1.67;;;1.67;;
6207;SDS011;3137;51.550;7.060;2024-02-23T03:44:10;1.40;;;1.40;;
6207;SDS011;3137;51.550;7.060;2024-02-23T03:46:37;1.70;;;1.60;;
6207;SDS011;3137;51.550;7.060;2024-02-23T03:49:03;1.87;;;1.77;;
6207;SDS011;3137;51.550;7.060;2024-02-23T03:51:30;1.40;;;1.40;;
6207;SDS011;3137;51.550;7.060;2024-02-23T03:53:59;1.73;;;1.73;;
6207;SDS011;3137;51.550;7.060;2024-02-23T03:56:25;2.67;;;2.20;;
6207;SDS011;3137;51.550;7.060;2024-02-23T03:58:51;3.63;;;1.60;;
6207;SDS011;3137;51.550;7.060;2024-02-23T04:01:18;1.60;;;1.60;;
6207;SDS011;3137;51.550;7.060;2024-02-23T04:03:44;2.33;;;1.47;;
6207;SDS011;3137;51.550;7.060;2024-02-23T04:06:11;5.43;;;1.87;;
6207;SDS011;3137;51.550;7.060;2024-02-23T04:08:37;1.87;;;1.60;;
6207;SDS011;3137;51.550;7.060;2024-02-23T04:11:04;1.60;;;1.47;;
6207;SDS011;3137;51.550;7.060;2024-02-23T04:13:30;2.87;;;1.53;;
6207;SDS011;3137;51.550;7.060;2024-02-23T04:15:57;1.40;;;1.40;;
6207;SDS011;3137;51.550;7.060;2024-02-23T04:18:23;5.70;;;2.20;;
6207;SDS011;3137;51.550;7.060;2024-02-23T04:20:50;1.53;;;1.53;;
6207;SDS011;3137;51.550;7.060;2024-02-23T04:23:16;2.70;;;1.23;;
6207;SDS011;3137;51.550;7.060;2024-02-23T04:25:42;1.50;;;1.50;;
6207;SDS011;3137;51.550;7.060;2024-02-23T04:28:09;3.60;;;2.07;;
6207;SDS011;3137;51.550;7.060;2024-02-23T04:30:35;2.93;;;1.67;;
6207;SDS011;3137;51.550;7.060;2024-02-23T04:33:02;1.40;;;1.40;;
6207;SDS011;3137;51.550;7.060;2024-02-23T04:35:28;2.23;;;1.60;;
6207;SDS011;3137;51.550;7.060;2024-02-23T04:37:55;4.03;;;1.90;;
6207;SDS011;3137;51.550;7.060;2024-02-23T04:40:21;2.63;;;2.37;;
6207;SDS011;3137;51.550;7.060;2024-02-23T04:42:48;1.93;;;1.67;;
6207;SDS011;3137;51.550;7.060;2024-02-23T04:45:14;2.03;;;1.30;;
6207;SDS011;3137;51.550;7.060;2024-02-23T04:47:41;4.10;;;1.53;;
6207;SDS011;3137;51.550;7.060;2024-02-23T04:50:08;3.03;;;1.67;;
6207;SDS011;3137;51.550;7.060;2024-02-23T04:52:37;5.13;;;1.50;;
6207;SDS011;3137;51.550;7.060;2024-02-23T04:55:03;3.20;;;1.33;;
6207;SDS011;3137;51.550;7.060;2024-02-23T04:57:31;8.43;;;1.33;;
6207;SDS011;3137;51.550;7.060;2024-02-23T04:59:58;3.60;;;1.73;;
6207;SDS011;3137;51.550;7.060;2024-02-23T05:02:24;1.70;;;1.43;;
6207;SDS011;3137;51.550;7.060;2024-02-23T05:04:54;2.00;;;1.23;;
6207;SDS011;3137;51.550;7.060;2024-02-23T05:07:21;2.63;;;1.40;;
6207;SDS011;3137;51.550;7.060;2024-02-23T05:09:47;2.30;;;1.50;;
6207;SDS011;3137;51.550;7.060;2024-02-23T05:12:14;1.73;;;1.70;;
6207;SDS011;3137;51.550;7.060;2024-02-23T05:14:40;1.57;;;1.57;;
6207;SDS011;3137;51.550;7.060;2024-02-23T05:17:07;9.17;;;1.90;;
6207;SDS011;3137;51.550;7.060;2024-02-23T05:19:33;1.60;;;1.60;;
6207;SDS011;3137;51.550;7.060;2024-02-23T05:22:00;2.00;;;1.60;;
6207;SDS011;3137;51.550;7.060;2024-02-23T05:24:26;1.83;;;1.70;;
6207;SDS011;3137;51.550;7.060;2024-02-23T05:26:52;1.60;;;1.40;;
6207;SDS011;3137;51.550;7.060;2024-02-23T05:29:19;2.23;;;1.37;;
6207;SDS011;3137;51.550;7.060;2024-02-23T05:31:49;5.10;;;2.60;;
6207;SDS011;3137;51.550;7.060;2024-02-23T05:34:18;1.53;;;1.53;;
6207;SDS011;3137;51.550;7.060;2024-02-23T05:36:45;2.00;;;1.87;;
6207;SDS011;3137;51.550;7.060;2024-02-23T05:39:13;1.00;;;1.00;;
6207;SDS011;3137;51.550;7.060;2024-02-23T05:41:41;4.00;;;2.20;;
6207;SDS011;3137;51.550;7.060;2024-02-23T05:44:08;3.13;;;1.23;;
6207;SDS011;3137;51.550;7.060;2024-02-23T05:46:35;1.30;;;1.30;;
6207;SDS011;3137;51.550;7.060;2024-02-23T05:49:02;2.30;;;2.10;;
6207;SDS011;3137;51.550;7.060;2024-02-23T05:51:30;2.20;;;1.57;;
6207;SDS011;3137;51.550;7.060;2024-02-23T05:53:57;2.43;;;1.67;;
6207;SDS011;3137;51.550;7.060;2024-02-23T05:56:24;2.67;;;1.67;;
6207;SDS011;3137;51.550;7.060;2024-02-23T05:58:51;3.97;;;1.57;;
6207;SDS011;3137;51.550;7.060;2024-02-23T06:01:18;5.20;;;1.70;;
6207;SDS011;3137;51.550;7.060;2024-02-23T06:03:45;5.20;;;1.67;;
6207;SDS011;3137;51.550;7.060;2024-02-23T06:06:12;1.73;;;1.50;;
6207;SDS011;3137;51.550;7.060;2024-02-23T06:08:38;2.23;;;1.70;;
6207;SDS011;3137;51.550;7.060;2024-02-23T06:11:05;3.30;;;1.60;;
6207;SDS011;3137;51.550;7.060;2024-02-23T06:13:33;2.10;;;2.00;;
6207;SDS011;3137;51.550;7.060;2024-02-23T06:16:00;1.80;;;1.23;;
6207;SDS011;3137;51.550;7.060;2024-02-23T06:18:26;1.50;;;1.40;;
6207;SDS011;3137;51.550;7.060;2024-02-23T06:20:53;5.17;;;2.20;;
6207;SDS011;3137;51.550;7.060;2024-02-23T06:23:19;4.80;;;2.27;;
6207;SDS011;3137;51.550;7.060;2024-02-23T06:25:48;6.80;;;1.97;;
6207;SDS011;3137;51.550;7.060;2024-02-23T06:28:14;3.70;;;1.43;;
6207;SDS011;3137;51.550;7.060;2024-02-23T06:30:41;3.23;;;2.07;;
6207;SDS011;3137;51.550;7.060;2024-02-23T06:33:08;1.80;;;1.70;;
6207;SDS011;3137;51.550;7.060;2024-02-23T06:35:35;4.40;;;1.90;;
6207;SDS011;3137;51.550;7.060;2024-02-23T06:38:01;8.73;;;1.63;;
6207;SDS011;3137;51.550;7.060;2024-02-23T06:40:28;2.13;;;1.77;;
6207;SDS011;3137;51.550;7.060;2024-02-23T06:43:11;1.43;;;1.33;;
6207;SDS011;3137;51.550;7.060;2024-02-23T06:45:37;1.77;;;1.67;;
6207;SDS011;3137;51.550;7.060;2024-02-23T06:48:04;2.30;;;1.80;;
6207;SDS011;3137;51.550;7.060;2024-02-23T06:50:30;2.77;;;1.70;;
6207;SDS011;3137;51.550;7.060;2024-02-23T06:52:57;2.30;;;1.70;;
6207;SDS011;3137;51.550;7.060;2024-02-23T06:55:23;2.43;;;1.60;;
6207;SDS011;3137;51.550;7.060;2024-02-23T06:57:50;1.70;;;1.43;;
6207;SDS011;3137;51.550;7.060;2024-02-23T07:00:16;2.77;;;1.77;;
6207;SDS011;3137;51.550;7.060;2024-02-23T07:02:43;1.50;;;1.50;;
6207;SDS011;3137;51.550;7.060;2024-02-23T07:05:09;2.33;;;1.80;;
6207;SDS011;3137;51.550;7.060;2024-02-23T07:07:36;4.80;;;1.77;;
6207;SDS011;3137;51.550;7.060;2024-02-23T07:10:02;1.87;;;1.40;;
6207;SDS011;3137;51.550;7.060;2024-02-23T07:12:29;2.60;;;1.77;;
6207;SDS011;3137;51.550;7.060;2024-02-23T07:14:55;6.73;;;1.97;;
6207;SDS011;3137;51.550;7.060;2024-02-23T07:17:22;3.73;;;1.63;;
6207;SDS011;3137;51.550;7.060;2024-02-23T07:19:49;1.60;;;1.60;;
6207;SDS011;3137;51.550;7.060;2024-02-23T07:22:16;10.30;;;2.10;;
6207;SDS011;3137;51.550;7.060;2024-02-23T07:24:52;2.00;;;1.80;;
6207;SDS011;3137;51.550;7.060;2024-02-23T07:27:18;2.20;;;1.77;;
6207;SDS011;3137;51.550;7.060;2024-02-23T07:29:45;1.77;;;1.33;;
6207;SDS011;3137;51.550;7.060;2024-02-23T07:32:11;1.70;;;1.70;;
6207;SDS011;3137;51.550;7.060;2024-02-23T07:34:38;4.10;;;1.97;;
6207;SDS011;3137;51.550;7.060;2024-02-23T07:37:05;1.50;;;1.50;;
6207;SDS011;3137;51.550;7.060;2024-02-23T07:39:31;8.43;;;2.93;;
6207;SDS011;3137;51.550;7.060;2024-02-23T07:41:57;8.27;;;1.83;;
6207;SDS011;3137;51.550;7.060;2024-02-23T07:44:24;1.47;;;1.40;;
6207;SDS011;3137;51.550;7.060;2024-02-23T07:46:51;2.83;;;1.60;;
6207;SDS011;3137;51.550;7.060;2024-02-23T07:49:20;4.20;;;1.93;;
6207;SDS011;3137;51.550;7.060;2024-02-23T07:51:48;2.03;;;2.03;;
6207;SDS011;3137;51.550;7.060;2024-02-23T07:54:14;4.97;;;2.70;;
6207;SDS011;3137;51.550;7.060;2024-02-23T07:56:41;3.77;;;1.93;;
6207;SDS011;3137;51.550;7.060;2024-02-23T07:59:07;5.37;;;1.40;;
6207;SDS011;3137;51.550;7.060;2024-02-23T08:01:34;1.60;;;1.50;;
6207;SDS011;3137;51.550;7.060;2024-02-23T08:04:00;1.70;;;1.60;;
6207;SDS011;3137;51.550;7.060;2024-02-23T08:06:27;1.73;;;1.63;;
6207;SDS011;3137;51.550;7.060;2024-02-23T08:08:53;1.63;;;1.63;;
6207;SDS011;3137;51.550;7.060;2024-02-23T08:11:21;1.67;;;1.67;;
6207;SDS011;3137;51.550;7.060;2024-02-23T08:13:47;7.40;;;1.53;;
6207;SDS011;3137;51.550;7.060;2024-02-23T08:16:17;2.50;;;1.30;;
6207;SDS011;3137;51.550;7.060;2024-02-23T08:18:43;1.63;;;1.63;;
6207;SDS011;3137;51.550;7.060;2024-02-23T08:21:10;1.80;;;1.70;;
6207;SDS011;3137;51.550;7.060;2024-02-23T08:23:37;1.90;;;1.90;;
6207;SDS011;3137;51.550;7.060;2024-02-23T08:26:05;3.07;;;1.53;;
6207;SDS011;3137;51.550;7.060;2024-02-23T08:28:32;5.93;;;2.67;;
6207;SDS011;3137;51.550;7.060;2024-02-23T08:30:58;2.03;;;1.80;;
6207;SDS011;3137;51.550;7.060;2024-02-23T08:33:25;1.83;;;1.67;;
6207;SDS011;3137;51.550;7.060;2024-02-23T08:35:51;3.33;;;2.00;;
6207;SDS011;3137;51.550;7.060;2024-02-23T08:38:18;4.00;;;1.93;;
6207;SDS011;3137;51.550;7.060;2024-02-23T08:40:45;2.13;;;1.90;;
6207;SDS011;3137;51.550;7.060;2024-02-23T08:43:11;2.33;;;2.17;;
6207;SDS011;3137;51.550;7.060;2024-02-23T08:45:38;1.80;;;1.70;;
6207;SDS011;3137;51.550;7.060;2024-02-23T08:48:04;2.10;;;1.97;;
6207;SDS011;3137;51.550;7.060;2024-02-23T08:50:31;1.87;;;1.77;;
6207;SDS011;3137;51.550;7.060;2024-02-23T08:52:57;1.40;;;1.30;;
6207;SDS011;3137;51.550;7.060;2024-02-23T08:55:24;2.13;;;2.00;;
6207;SDS011;3137;51.550;7.060;2024-02-23T08:57:50;7.63;;;2.23;;
6207;SDS011;3137;51.550;7.060;2024-02-23T09:00:17;8.93;;;1.60;;
6207;SDS011;3137;51.550;7.060;2024-02-23T09:02:44;1.50;;;1.40;;
6207;SDS011;3137;51.550;7.060;2024-02-23T09:05:10;5.10;;;2.30;;
6207;SDS011;3137;51.550;7.060;2024-02-23T09:07:37;4.70;;;1.97;;
6207;SDS011;3137;51.550;7.060;2024-02-23T09:10:04;1.70;;;1.70;;
6207;SDS011;3137;51.550;7.060;2024-02-23T09:12:31;3.73;;;1.97;;
6207;SDS011;3137;51.550;7.060;2024-02-23T09:14:57;1.97;;;1.73;;
6207;SDS011;3137;51.550;7.060;2024-02-23T09:17:24;10.80;;;3.90;;
6207;SDS011;3137;51.550;7.060;2024-02-23T09:19:51;2.07;;;1.83;;
6207;SDS011;3137;51.550;7.060;2024-02-23T09:22:18;4.30;;;1.90;;
6207;SDS011;3137;51.550;7.060;2024-02-23T09:24:44;1.90;;;1.90;;
6207;SDS011;3137;51.550;7.060;2024-02-23T09:27:11;3.70;;;1.70;;
6207;SDS011;3137;51.550;7.060;2024-02-23T09:29:40;1.90;;;1.80;;
6207;SDS011;3137;51.550;7.060;2024-02-23T09:32:06;1.83;;;1.70;;
6207;SDS011;3137;51.550;7.060;2024-02-23T09:34:33;1.50;;;1.40;;
6207;SDS011;3137;51.550;7.060;2024-02-23T09:36:59;5.23;;;2.07;;
6207;SDS011;3137;51.550;7.060;2024-02-23T09:39:26;1.20;;;1.20;;
6207;SDS011;3137;51.550;7.060;2024-02-23T09:41:56;1.67;;;1.30;;
6207;SDS011;3137;51.550;7.060;2024-02-23T09:44:32;6.33;;;1.47;;
6207;SDS011;3137;51.550;7.060;2024-02-23T09:47:02;2.00;;;1.63;;
6207;SDS011;3137;51.550;7.060;2024-02-23T09:49:36;1.90;;;1.67;;
6207;SDS011;3137;51.550;7.060;2024-02-23T09:52:04;1.57;;;1.47;;
6207;SDS011;3137;51.550;7.060;2024-02-23T09:54:34;6.73;;;2.27;;
6207;SDS011;3137;51.550;7.060;2024-02-23T09:57:01;2.37;;;1.53;;
6207;SDS011;3137;51.550;7.060;2024-02-23T09:59:31;2.17;;;2.03;;
6207;SDS011;3137;51.550;7.060;2024-02-23T10:02:00;1.73;;;1.63;;
6207;SDS011;3137;51.550;7.060;2024-02-23T10:04:29;1.83;;;1.30;;
6207;SDS011;3137;51.550;7.060;2024-02-23T10:06:56;2.67;;;1.53;;
6207;SDS011;3137;51.550;7.060;2024-02-23T10:09:23;3.00;;;1.50;;
6207;SDS011;3137;51.550;7.060;2024-02-23T10:11:52;1.53;;;1.40;;
6207;SDS011;3137;51.550;7.060;2024-02-23T10:14:19;1.17;;;1.17;;
6207;SDS011;3137;51.550;7.060;2024-02-23T10:16:47;7.43;;;2.23;;
6207;SDS011;3137;51.550;7.060;2024-02-23T10:19:14;1.77;;;1.67;;
6207;SDS011;3137;51.550;7.060;2024-02-23T10:21:41;5.90;;;1.67;;
6207;SDS011;3137;51.550;7.060;2024-02-23T10:24:07;1.63;;;1.53;;
6207;SDS011;3137;51.550;7.060;2024-02-23T10:26:35;1.30;;;1.30;;
6207;SDS011;3137;51.550;7.060;2024-02-23T10:29:02;4.00;;;1.33;;
6207;SDS011;3137;51.550;7.060;2024-02-23T10:31:34;4.23;;;2.20;;
6207;SDS011;3137;51.550;7.060;2024-02-23T10:34:05;3.17;;;1.47;;
6207;SDS011;3137;51.550;7.060;2024-02-23T10:36:35;1.50;;;1.33;;
6207;SDS011;3137;51.550;7.060;2024-02-23T10:39:02;1.70;;;1.40;;
6207;SDS011;3137;51.550;7.060;2024-02-23T10:41:30;3.63;;;1.23;;
6207;SDS011;3137;51.550;7.060;2024-02-23T10:44:01;1.93;;;1.60;;
6207;SDS011;3137;51.550;7.060;2024-02-23T10:46:30;2.57;;;2.00;;
6207;SDS011;3137;51.550;7.060;2024-02-23T10:48:58;1.90;;;1.80;;
6207;SDS011;3137;51.550;7.060;2024-02-23T10:51:28;1.13;;;1.13;;
6207;SDS011;3137;51.550;7.060;2024-02-23T10:53:55;7.53;;;1.67;;
6207;SDS011;3137;51.550;7.060;2024-02-23T10:56:23;2.80;;;1.97;;
6207;SDS011;3137;51.550;7.060;2024-02-23T10:58:52;2.00;;;1.90;;
6207;SDS011;3137;51.550;7.060;2024-02-23T11:01:18;2.07;;;1.97;;
6207;SDS011;3137;51.550;7.060;2024-02-23T11:03:46;2.73;;;2.07;;
6207;SDS011;3137;51.550;7.060;2024-02-23T11:06:16;1.80;;;1.70;;
6207;SDS011;3137;51.550;7.060;2024-02-23T11:08:47;2.07;;;1.90;;
6207;SDS011;3137;51.550;7.060;2024-02-23T11:11:15;2.60;;;2.13;;
6207;SDS011;3137;51.550;7.060;2024-02-23T11:13:46;2.30;;;1.40;;
6207;SDS011;3137;51.550;7.060;2024-02-23T11:16:22;1.20;;;1.20;;
6207;SDS011;3137;51.550;7.060;2024-02-23T11:19:01;2.17;;;1.10;;
6207;SDS011;3137;51.550;7.060;2024-02-23T11:21:36;1.90;;;1.40;;
6207;SDS011;3137;51.550;7.060;2024-02-23T11:24:04;1.30;;;1.30;;
6207;SDS011;3137;51.550;7.060;2024-02-23T11:26:31;1.63;;;1.60;;
6207;SDS011;3137;51.550;7.060;2024-02-23T11:29:09;8.47;;;1.77;;
6207;SDS011;3137;51.550;7.060;2024-02-23T11:31:37;9.43;;;1.37;;
6207;SDS011;3137;51.550;7.060;2024-02-23T11:34:10;1.77;;;1.77;;
6207;SDS011;3137;51.550;7.060;2024-02-23T11:36:38;1.10;;;1.10;;
6207;SDS011;3137;51.550;7.060;2024-02-23T11:39:04;2.17;;;2.00;;
6207;SDS011;3137;51.550;7.060;2024-02-23T11:41:31;1.53;;;1.53;;
6207;SDS011;3137;51.550;7.060;2024-02-23T11:43:58;1.23;;;1.23;;
6207;SDS011;3137;51.550;7.060;2024-02-23T11:46:25;1.97;;;1.20;;
6207;SDS011;3137;51.550;7.060;2024-02-23T11:48:51;1.20;;;1.10;;
6207;SDS011;3137;51.550;7.060;2024-02-23T11:51:21;1.10;;;1.10;;
6207;SDS011;3137;51.550;7.060;2024-02-23T11:53:49;1.43;;;1.30;;
6207;SDS011;3137;51.550;7.060;2024-02-23T11:56:16;6.43;;;1.70;;
6207;SDS011;3137;51.550;7.060;2024-02-23T11:58:45;3.40;;;1.70;;
6207;SDS011;3137;51.550;7.060;2024-02-23T12:01:13;1.60;;;1.00;;
6207;SDS011;3137;51.550;7.060;2024-02-23T12:03:39;1.30;;;1.30;;
6207;SDS011;3137;51.550;7.060;2024-02-23T12:06:07;3.10;;;1.43;;
6207;SDS011;3137;51.550;7.060;2024-02-23T12:08:35;1.40;;;1.40;;
6207;SDS011;3137;51.550;7.060;2024-02-23T12:11:05;1.23;;;1.23;;
6207;SDS011;3137;51.550;7.060;2024-02-23T12:13:35;12.90;;;1.87;;
6207;SDS011;3137;51.550;7.060;2024-02-23T12:16:02;6.03;;;1.37;;
6207;SDS011;3137;51.550;7.060;2024-02-23T12:18:29;1.57;;;1.57;;
6207;SDS011;3137;51.550;7.060;2024-02-23T12:21:08;1.13;;;1.13;;
6207;SDS011;3137;51.550;7.060;2024-02-23T12:23:42;1.40;;;1.40;;
6207;SDS011;3137;51.550;7.060;2024-02-23T12:26:10;1.67;;;1.60;;
6207;SDS011;3137;51.550;7.060;2024-02-23T12:28:43;2.10;;;1.43;;
6207;SDS011;3137;51.550;7.060;2024-02-23T12:31:10;1.57;;;1.30;;
6207;SDS011;3137;51.550;7.060;2024-02-23T12:33:38;1.73;;;1.50;;
6207;SDS011;3137;51.550;7.060;2024-02-23T12:36:08;2.13;;;1.37;;
6207;SDS011;3137;51.550;7.060;2024-02-23T12:38:36;3.33;;;1.53;;
6207;SDS011;3137;51.550;7.060;2024-02-23T12:41:03;2.73;;;1.80;;
6207;SDS011;3137;51.550;7.060;2024-02-23T12:43:31;2.17;;;2.13;;
6207;SDS011;3137;51.550;7.060;2024-02-23T12:45:57;1.17;;;1.10;;
6207;SDS011;3137;51.550;7.060;2024-02-23T12:48:24;7.33;;;1.27;;
6207;SDS011;3137;51.550;7.060;2024-02-23T12:50:51;4.80;;;1.30;;
6207;SDS011;3137;51.550;7.060;2024-02-23T12:56:05;1.30;;;1.30;;
6207;SDS011;3137;51.550;7.060;2024-02-23T12:58:36;2.53;;;1.27;;
6207;SDS011;3137;51.550;7.060;2024-02-23T13:01:03;1.30;;;1.20;;
6207;SDS011;3137;51.550;7.060;2024-02-23T13:03:32;2.83;;;1.80;;
6207;SDS011;3137;51.550;7.060;2024-02-23T13:05:59;1.37;;;1.30;;
6207;SDS011;3137;51.550;7.060;2024-02-23T13:08:26;5.63;;;1.90;;
6207;SDS011;3137;51.550;7.060;2024-02-23T13:10:53;3.07;;;1.17;;
6207;SDS011;3137;51.550;7.060;2024-02-23T13:13:21;2.00;;;1.60;;
6207;SDS011;3137;51.550;7.060;2024-02-23T13:15:48;1.33;;;1.33;;
6207;SDS011;3137;51.550;7.060;2024-02-23T13:18:16;1.73;;;1.73;;
6207;SDS011;3137;51.550;7.060;2024-02-23T13:20:43;9.17;;;2.67;;
6207;SDS011;3137;51.550;7.060;2024-02-23T13:23:10;2.50;;;1.87;;
6207;SDS011;3137;51.550;7.060;2024-02-23T13:25:38;4.90;;;1.43;;
6207;SDS011;3137;51.550;7.060;2024-02-23T13:28:05;4.03;;;1.27;;
6207;SDS011;3137;51.550;7.060;2024-02-23T13:30:32;7.20;;;1.40;;
6207;SDS011;3137;51.550;7.060;2024-02-23T13:32:59;7.37;;;4.27;;
6207;SDS011;3137;51.550;7.060;2024-02-23T13:35:26;1.50;;;1.20;;
6207;SDS011;3137;51.550;7.060;2024-02-23T13:37:53;3.83;;;1.27;;
6207;SDS011;3137;51.550;7.060;2024-02-23T13:40:20;1.17;;;1.17;;
6207;SDS011;3137;51.550;7.060;2024-02-23T13:42:47;1.47;;;1.37;;
6207;SDS011;3137;51.550;7.060;2024-02-23T13:45:19;5.40;;;1.17;;
6207;SDS011;3137;51.550;7.060;2024-02-23T13:47:55;2.90;;;1.70;;
6207;SDS011;3137;51.550;7.060;2024-02-23T13:50:25;1.37;;;1.33;;
6207;SDS011;3137;51.550;7.060;2024-02-23T13:52:52;2.17;;;1.60;;
6207;SDS011;3137;51.550;7.060;2024-02-23T13:55:18;5.50;;;1.20;;
6207;SDS011;3137;51.550;7.060;2024-02-23T13:57:48;1.50;;;1.50;;
6207;SDS011;3137;51.550;7.060;2024-02-23T14:00:16;1.70;;;1.60;;
6207;SDS011;3137;51.550;7.060;2024-02-23T14:02:46;11.20;;;1.50;;
6207;SDS011;3137;51.550;7.060;2024-02-23T14:05:13;3.80;;;1.57;;
6207;SDS011;3137;51.550;7.060;2024-02-23T14:07:41;4.07;;;1.67;;
6207;SDS011;3137;51.550;7.060;2024-02-23T14:10:07;16.20;;;1.47;;
6207;SDS011;3137;51.550;7.060;2024-02-23T14:12:34;2.40;;;1.40;;
6207;SDS011;3137;51.550;7.060;2024-02-23T14:15:01;2.77;;;1.63;;
6207;SDS011;3137;51.550;7.060;2024-02-23T14:17:27;3.30;;;1.60;;
6207;SDS011;3137;51.550;7.060;2024-02-23T14:19:54;1.30;;;1.20;;
6207;SDS011;3137;51.550;7.060;2024-02-23T14:22:21;3.73;;;1.47;;
6207;SDS011;3137;51.550;7.060;2024-02-23T14:24:47;5.80;;;1.40;;
6207;SDS011;3137;51.550;7.060;2024-02-23T14:27:14;1.40;;;1.30;;
6207;SDS011;3137;51.550;7.060;2024-02-23T14:29:40;2.07;;;2.07;;
6207;SDS011;3137;51.550;7.060;2024-02-23T14:32:07;1.67;;;1.67;;
6207;SDS011;3137;51.550;7.060;2024-02-23T14:34:33;1.67;;;1.57;;
6207;SDS011;3137;51.550;7.060;2024-02-23T14:37:01;1.37;;;1.30;;
6207;SDS011;3137;51.550;7.060;2024-02-23T14:39:27;1.07;;;1.07;;
6207;SDS011;3137;51.550;7.060;2024-02-23T14:41:53;4.13;;;1.63;;
6207;SDS011;3137;51.550;7.060;2024-02-23T14:44:20;1.60;;;1.50;;
6207;SDS011;3137;51.550;7.060;2024-02-23T14:46:47;6.90;;;1.30;;
6207;SDS011;3137;51.550;7.060;2024-02-23T14:49:13;7.57;;;1.50;;
6207;SDS011;3137;51.550;7.060;2024-02-23T14:51:40;5.90;;;1.53;;
6207;SDS011;3137;51.550;7.060;2024-02-23T14:54:09;1.20;;;1.20;;
6207;SDS011;3137;51.550;7.060;2024-02-23T14:56:35;1.73;;;1.73;;
6207;SDS011;3137;51.550;7.060;2024-02-23T14:59:02;2.47;;;1.07;;
6207;SDS011;3137;51.550;7.060;2024-02-23T15:01:29;1.20;;;1.10;;
6207;SDS011;3137;51.550;7.060;2024-02-23T15:03:56;2.17;;;1.30;;
6207;SDS011;3137;51.550;7.060;2024-02-23T15:06:22;1.90;;;1.50;;
6207;SDS011;3137;51.550;7.060;2024-02-23T15:08:50;3.07;;;2.37;;
6207;SDS011;3137;51.550;7.060;2024-02-23T15:11:16;2.53;;;1.47;;
6207;SDS011;3137;51.550;7.060;2024-02-23T15:13:44;1.23;;;1.23;;
6207;SDS011;3137;51.550;7.060;2024-02-23T15:16:10;1.20;;;1.20;;
6207;SDS011;3137;51.550;7.060;2024-02-23T15:18:37;1.30;;;1.30;;